sensor_id;sensor_type;location;lat;lon;timestamp;pressure;altitude;pressure_sealevel;temperature;humidity
14269;BME280;7218;51.480;7.006;2023-02-26T00:01:36;100724.06;;;3.95;66.74
14269;BME280;7218;51.480;7.006;2023-02-26T00:04:04;100725.53;;;3.76;67.06
14269;BME280;7218;51.480;7.006;2023-02-26T00:06:32;100723.78;;;3.73;67.49
14269;BME280;7218;51.480;7.006;2023-02-26T00:09:01;100726.38;;;3.73;67.23
14269;BME280;7218;51.480;7.006;2023-02-26T00:11:28;100736.50;;;3.64;67.62
14269;BME280;7218;51.480;7.006;2023-02-26T00:13:55;100737.28;;;3.59;67.23
14269;BME280;7218;51.480;7.006;2023-02-26T00:16:26;100733.31;;;3.80;66.16
14269;BME280;7218;51.480;7.006;2023-02-26T00:18:53;100740.09;;;3.72;66.99
14269;BME280;7218;51.480;7.006;2023-02-26T00:21:21;100736.56;;;3.69;68.45
14269;BME280;7218;51.480;7.006;2023-02-26T00:23:48;100737.38;;;3.65;67.78
14269;BME280;7218;51.480;7.006;2023-02-26T00:26:17;100739.31;;;3.79;68.24
14269;BME280;7218;51.480;7.006;2023-02-26T00:28:44;100742.84;;;3.83;67.06
14269;BME280;7218;51.480;7.006;2023-02-26T00:31:13;100742.91;;;3.89;66.57
14269;BME280;7218;51.480;7.006;2023-02-26T00:33:41;100750.41;;;3.72;66.84
14269;BME280;7218;51.480;7.006;2023-02-26T00:36:18;100743.13;;;4.04;65.96
14269;BME280;7218;51.480;7.006;2023-02-26T00:38:53;100738.00;;;4.06;66.03
14269;BME280;7218;51.480;7.006;2023-02-26T00:41:24;100736.41;;;4.15;66.78
14269;BME280;7218;51.480;7.006;2023-02-26T00:43:51;100732.16;;;4.17;65.73
14269;BME280;7218;51.480;7.006;2023-02-26T00:46:23;100746.72;;;4.14;64.97
14269;BME280;7218;51.480;7.006;2023-02-26T00:48:59;100757.22;;;4.26;65.12
14269;BME280;7218;51.480;7.006;2023-02-26T00:51:30;100763.28;;;4.29;65.42
14269;BME280;7218;51.480;7.006;2023-02-26T00:54:03;100761.19;;;4.04;64.04
14269;BME280;7218;51.480;7.006;2023-02-26T00:56:32;100764.72;;;4.09;64.36
14269;BME280;7218;51.480;7.006;2023-02-26T00:58:58;100765.38;;;3.96;64.82
14269;BME280;7218;51.480;7.006;2023-02-26T01:01:25;100769.09;;;4.15;65.31
14269;BME280;7218;51.480;7.006;2023-02-26T01:03:52;100773.50;;;4.23;66.83
14269;BME280;7218;51.480;7.006;2023-02-26T01:06:20;100770.00;;;4.17;67.22
14269;BME280;7218;51.480;7.006;2023-02-26T01:08:52;100768.28;;;4.19;67.06
14269;BME280;7218;51.480;7.006;2023-02-26T01:11:20;100774.19;;;4.10;67.27
14269;BME280;7218;51.480;7.006;2023-02-26T01:13:48;100772.69;;;4.26;68.07
14269;BME280;7218;51.480;7.006;2023-02-26T01:16:24;100770.91;;;4.20;67.13
14269;BME280;7218;51.480;7.006;2023-02-26T01:18:55;100768.41;;;4.26;67.57
14269;BME280;7218;51.480;7.006;2023-02-26T01:21:30;100769.22;;;4.24;67.09
14269;BME280;7218;51.480;7.006;2023-02-26T01:23:59;100784.47;;;4.09;65.54
14269;BME280;7218;51.480;7.006;2023-02-26T01:26:28;100790.75;;;4.24;64.79
14269;BME280;7218;51.480;7.006;2023-02-26T01:28:56;100790.81;;;4.27;64.69
14269;BME280;7218;51.480;7.006;2023-02-26T01:31:34;100785.63;;;4.27;66.69
14269;BME280;7218;51.480;7.006;2023-02-26T01:34:07;100787.16;;;4.15;65.79
14269;BME280;7218;51.480;7.006;2023-02-26T01:36:40;100796.66;;;4.16;65.15
14269;BME280;7218;51.480;7.006;2023-02-26T01:39:14;100790.50;;;4.09;65.70
14269;BME280;7218;51.480;7.006;2023-02-26T01:41:46;100798.31;;;4.14;64.70
14269;BME280;7218;51.480;7.006;2023-02-26T01:44:21;100791.16;;;3.93;65.21
14269;BME280;7218;51.480;7.006;2023-02-26T01:46:58;100804.19;;;4.04;66.10
14269;BME280;7218;51.480;7.006;2023-02-26T01:49:28;100809.94;;;3.86;66.04
14269;BME280;7218;51.480;7.006;2023-02-26T01:51:58;100802.16;;;3.83;64.72
14269;BME280;7218;51.480;7.006;2023-02-26T01:54:29;100811.69;;;3.87;64.30
14269;BME280;7218;51.480;7.006;2023-02-26T01:56:59;100809.91;;;3.84;65.54
14269;BME280;7218;51.480;7.006;2023-02-26T01:59:31;100802.84;;;3.73;66.19
14269;BME280;7218;51.480;7.006;2023-02-26T02:01:58;100808.09;;;3.79;65.98
14269;BME280;7218;51.480;7.006;2023-02-26T02:04:27;100803.72;;;3.75;64.99
14269;BME280;7218;51.480;7.006;2023-02-26T02:06:54;100814.09;;;3.76;65.16
14269;BME280;7218;51.480;7.006;2023-02-26T02:09:20;100811.53;;;3.78;65.56
14269;BME280;7218;51.480;7.006;2023-02-26T02:12:08;100811.09;;;3.52;64.97
14269;BME280;7218;51.480;7.006;2023-02-26T02:14:43;100819.84;;;3.62;65.03
14269;BME280;7218;51.480;7.006;2023-02-26T02:17:13;100828.06;;;3.41;64.32
14269;BME280;7218;51.480;7.006;2023-02-26T02:20:05;100835.69;;;3.33;64.15
14269;BME280;7218;51.480;7.006;2023-02-26T02:22:50;100833.84;;;3.29;64.54
14269;BME280;7218;51.480;7.006;2023-02-26T02:25:44;100837.19;;;3.22;63.26
14269;BME280;7218;51.480;7.006;2023-02-26T02:28:22;100839.88;;;3.30;63.62
14269;BME280;7218;51.480;7.006;2023-02-26T02:31:00;100838.91;;;3.23;64.03
14269;BME280;7218;51.480;7.006;2023-02-26T02:33:34;100846.78;;;3.31;64.26
14269;BME280;7218;51.480;7.006;2023-02-26T02:36:05;100844.72;;;3.13;64.17
14269;BME280;7218;51.480;7.006;2023-02-26T02:38:35;100847.97;;;3.04;65.36
14269;BME280;7218;51.480;7.006;2023-02-26T02:41:06;100845.88;;;3.27;63.75
14269;BME280;7218;51.480;7.006;2023-02-26T02:43:37;100851.47;;;3.07;64.21
14269;BME280;7218;51.480;7.006;2023-02-26T02:46:07;100847.41;;;3.18;63.71
14269;BME280;7218;51.480;7.006;2023-02-26T02:48:37;100850.75;;;3.14;63.52
14269;BME280;7218;51.480;7.006;2023-02-26T02:51:08;100853.44;;;3.18;63.52
14269;BME280;7218;51.480;7.006;2023-02-26T02:53:37;100863.03;;;3.27;63.04
14269;BME280;7218;51.480;7.006;2023-02-26T02:56:09;100865.53;;;3.22;64.15
14269;BME280;7218;51.480;7.006;2023-02-26T02:58:41;100866.31;;;3.18;64.07
14269;BME280;7218;51.480;7.006;2023-02-26T03:01:12;100873.75;;;3.04;64.55
14269;BME280;7218;51.480;7.006;2023-02-26T03:03:44;100865.13;;;3.02;65.06
14269;BME280;7218;51.480;7.006;2023-02-26T03:06:13;100876.19;;;2.97;65.74
14269;BME280;7218;51.480;7.006;2023-02-26T03:08:43;100878.75;;;2.97;65.33
14269;BME280;7218;51.480;7.006;2023-02-26T03:11:11;100884.59;;;2.88;66.23
14269;BME280;7218;51.480;7.006;2023-02-26T03:13:38;100890.56;;;2.87;67.28
14269;BME280;7218;51.480;7.006;2023-02-26T03:16:24;100885.25;;;2.80;66.92
14269;BME280;7218;51.480;7.006;2023-02-26T03:18:59;100886.78;;;2.72;68.72
14269;BME280;7218;51.480;7.006;2023-02-26T03:21:33;100896.84;;;2.61;69.91
14269;BME280;7218;51.480;7.006;2023-02-26T03:24:08;100902.25;;;2.72;69.15
14269;BME280;7218;51.480;7.006;2023-02-26T03:26:40;100902.19;;;2.70;69.21
14269;BME280;7218;51.480;7.006;2023-02-26T03:29:15;100904.00;;;2.74;69.55
14269;BME280;7218;51.480;7.006;2023-02-26T03:31:51;100903.06;;;2.71;69.49
14269;BME280;7218;51.480;7.006;2023-02-26T03:34:24;100912.69;;;2.78;69.18
14269;BME280;7218;51.480;7.006;2023-02-26T03:36:55;100914.44;;;2.79;69.32
14269;BME280;7218;51.480;7.006;2023-02-26T03:39:26;100918.66;;;2.77;69.05
14269;BME280;7218;51.480;7.006;2023-02-26T03:41:56;100923.41;;;2.60;70.18
14269;BME280;7218;51.480;7.006;2023-02-26T03:44:26;100930.25;;;2.59;71.22
14269;BME280;7218;51.480;7.006;2023-02-26T03:46:59;100928.78;;;2.69;69.60
14269;BME280;7218;51.480;7.006;2023-02-26T03:49:30;100922.53;;;2.58;70.75
14269;BME280;7218;51.480;7.006;2023-02-26T03:51:58;100917.53;;;2.66;70.50
14269;BME280;7218;51.480;7.006;2023-02-26T03:54:30;100925.25;;;2.66;70.42
14269;BME280;7218;51.480;7.006;2023-02-26T03:56:58;100938.75;;;2.55;71.09
14269;BME280;7218;51.480;7.006;2023-02-26T03:59:25;100936.47;;;2.68;71.24
14269;BME280;7218;51.480;7.006;2023-02-26T04:01:55;100943.91;;;2.55;72.38
14269;BME280;7218;51.480;7.006;2023-02-26T04:04:29;100941.31;;;2.54;72.08
14269;BME280;7218;51.480;7.006;2023-02-26T04:06:56;100946.34;;;2.49;72.01
14269;BME280;7218;51.480;7.006;2023-02-26T04:09:23;100943.81;;;2.51;71.69
14269;BME280;7218;51.480;7.006;2023-02-26T04:11:50;100948.28;;;2.58;71.26
14269;BME280;7218;51.480;7.006;2023-02-26T04:14:18;100954.66;;;2.38;71.71
14269;BME280;7218;51.480;7.006;2023-02-26T04:16:45;100959.56;;;2.29;72.75
14269;BME280;7218;51.480;7.006;2023-02-26T04:19:11;100950.13;;;2.29;73.31
14269;BME280;7218;51.480;7.006;2023-02-26T04:21:39;100956.13;;;2.28;73.60
14269;BME280;7218;51.480;7.006;2023-02-26T04:24:06;100963.75;;;2.25;72.91
14269;BME280;7218;51.480;7.006;2023-02-26T04:26:32;100968.13;;;2.28;72.28
14269;BME280;7218;51.480;7.006;2023-02-26T04:28:59;100973.44;;;2.35;72.22
14269;BME280;7218;51.480;7.006;2023-02-26T04:31:25;100973.38;;;2.32;71.95
14269;BME280;7218;51.480;7.006;2023-02-26T04:33:52;100975.72;;;2.23;73.00
14269;BME280;7218;51.480;7.006;2023-02-26T04:36:18;100977.47;;;2.24;72.01
14269;BME280;7218;51.480;7.006;2023-02-26T04:38:46;100976.84;;;2.34;71.79
14269;BME280;7218;51.480;7.006;2023-02-26T04:41:13;100994.34;;;2.14;72.00
14269;BME280;7218;51.480;7.006;2023-02-26T04:43:39;100995.38;;;2.21;72.11
14269;BME280;7218;51.480;7.006;2023-02-26T04:46:06;100994.84;;;2.34;72.54
14269;BME280;7218;51.480;7.006;2023-02-26T04:48:32;100998.19;;;2.30;71.92
14269;BME280;7218;51.480;7.006;2023-02-26T04:50:59;100997.41;;;2.33;71.94
14269;BME280;7218;51.480;7.006;2023-02-26T04:53:25;101004.31;;;2.35;72.10
14269;BME280;7218;51.480;7.006;2023-02-26T04:55:53;101001.69;;;2.32;70.12
14269;BME280;7218;51.480;7.006;2023-02-26T04:58:19;101004.09;;;2.26;70.56
14269;BME280;7218;51.480;7.006;2023-02-26T05:00:47;101003.09;;;2.21;70.53
14269;BME280;7218;51.480;7.006;2023-02-26T05:03:13;101008.19;;;2.18;71.34
14269;BME280;7218;51.480;7.006;2023-02-26T05:05:40;101009.75;;;2.13;70.61
14269;BME280;7218;51.480;7.006;2023-02-26T05:08:07;101016.72;;;2.17;70.72
14269;BME280;7218;51.480;7.006;2023-02-26T05:10:34;101025.97;;;2.09;70.98
14269;BME280;7218;51.480;7.006;2023-02-26T05:13:02;101026.66;;;2.03;71.09
14269;BME280;7218;51.480;7.006;2023-02-26T05:15:28;101030.22;;;2.08;71.28
14269;BME280;7218;51.480;7.006;2023-02-26T05:17:55;101036.13;;;2.06;71.28
14269;BME280;7218;51.480;7.006;2023-02-26T05:20:21;101036.91;;;2.02;71.19
14269;BME280;7218;51.480;7.006;2023-02-26T05:22:48;101037.88;;;2.07;71.09
14269;BME280;7218;51.480;7.006;2023-02-26T05:25:15;101047.25;;;2.05;71.76
14269;BME280;7218;51.480;7.006;2023-02-26T05:27:42;101042.81;;;1.99;72.29
14269;BME280;7218;51.480;7.006;2023-02-26T05:30:13;101043.25;;;1.85;71.79
14269;BME280;7218;51.480;7.006;2023-02-26T05:32:40;101046.59;;;1.81;72.38
14269;BME280;7218;51.480;7.006;2023-02-26T05:35:07;101051.72;;;1.79;72.37
14269;BME280;7218;51.480;7.006;2023-02-26T05:37:34;101057.53;;;1.73;72.51
14269;BME280;7218;51.480;7.006;2023-02-26T05:40:01;101055.09;;;1.78;72.46
14269;BME280;7218;51.480;7.006;2023-02-26T05:42:27;101061.25;;;1.85;72.37
14269;BME280;7218;51.480;7.006;2023-02-26T05:44:54;101061.94;;;1.78;71.92
14269;BME280;7218;51.480;7.006;2023-02-26T05:47:21;101063.56;;;1.76;72.79
14269;BME280;7218;51.480;7.006;2023-02-26T05:49:48;101064.56;;;1.79;72.71
14269;BME280;7218;51.480;7.006;2023-02-26T05:52:18;101068.03;;;1.81;72.62
14269;BME280;7218;51.480;7.006;2023-02-26T05:54:44;101060.66;;;1.63;72.63
14269;BME280;7218;51.480;7.006;2023-02-26T05:57:10;101065.97;;;1.69;73.06
14269;BME280;7218;51.480;7.006;2023-02-26T05:59:37;101077.44;;;1.81;72.40
14269;BME280;7218;51.480;7.006;2023-02-26T06:02:03;101083.50;;;1.83;71.83
14269;BME280;7218;51.480;7.006;2023-02-26T06:04:32;101085.97;;;1.80;71.64
14269;BME280;7218;51.480;7.006;2023-02-26T06:06:58;101087.69;;;1.79;72.16
14269;BME280;7218;51.480;7.006;2023-02-26T06:09:25;101094.63;;;1.82;71.55
14269;BME280;7218;51.480;7.006;2023-02-26T06:11:51;101095.56;;;1.85;71.80
14269;BME280;7218;51.480;7.006;2023-02-26T06:14:18;101101.50;;;1.83;72.03
14269;BME280;7218;51.480;7.006;2023-02-26T06:16:44;101106.38;;;1.73;71.51
14269;BME280;7218;51.480;7.006;2023-02-26T06:19:11;101113.81;;;1.64;72.41
14269;BME280;7218;51.480;7.006;2023-02-26T06:21:39;101117.50;;;1.72;71.54
14269;BME280;7218;51.480;7.006;2023-02-26T06:24:06;101122.06;;;1.83;71.86
14269;BME280;7218;51.480;7.006;2023-02-26T06:26:32;101122.50;;;1.68;71.89
14269;BME280;7218;51.480;7.006;2023-02-26T06:28:59;101135.38;;;1.69;71.93
14269;BME280;7218;51.480;7.006;2023-02-26T06:31:26;101141.38;;;1.70;72.64
14269;BME280;7218;51.480;7.006;2023-02-26T06:33:53;101138.88;;;1.71;72.69
14269;BME280;7218;51.480;7.006;2023-02-26T06:36:19;101144.03;;;1.71;72.88
14269;BME280;7218;51.480;7.006;2023-02-26T06:38:47;101144.09;;;1.74;71.73
14269;BME280;7218;51.480;7.006;2023-02-26T06:41:13;101143.34;;;1.77;71.90
14269;BME280;7218;51.480;7.006;2023-02-26T06:43:40;101152.13;;;1.85;71.32
14269;BME280;7218;51.480;7.006;2023-02-26T06:46:06;101164.28;;;1.89;71.67
14269;BME280;7218;51.480;7.006;2023-02-26T06:48:35;101168.25;;;1.80;71.89
14269;BME280;7218;51.480;7.006;2023-02-26T06:51:02;101168.44;;;1.86;70.88
14269;BME280;7218;51.480;7.006;2023-02-26T06:53:28;101174.69;;;1.94;71.21
14269;BME280;7218;51.480;7.006;2023-02-26T06:55:56;101184.06;;;1.92;71.16
14269;BME280;7218;51.480;7.006;2023-02-26T06:58:23;101179.84;;;1.94;70.54
14269;BME280;7218;51.480;7.006;2023-02-26T07:00:49;101189.34;;;1.96;71.05
14269;BME280;7218;51.480;7.006;2023-02-26T07:03:17;101189.47;;;2.01;70.29
14269;BME280;7218;51.480;7.006;2023-02-26T07:05:44;101203.25;;;2.03;71.12
14269;BME280;7218;51.480;7.006;2023-02-26T07:08:12;101196.56;;;2.08;70.98
14269;BME280;7218;51.480;7.006;2023-02-26T07:10:40;101198.31;;;2.09;70.64
14269;BME280;7218;51.480;7.006;2023-02-26T07:13:08;101205.09;;;2.07;70.48
14269;BME280;7218;51.480;7.006;2023-02-26T07:15:34;101202.56;;;2.08;70.33
14269;BME280;7218;51.480;7.006;2023-02-26T07:18:01;101206.03;;;2.10;70.80
14269;BME280;7218;51.480;7.006;2023-02-26T07:20:27;101214.63;;;2.11;70.71
14269;BME280;7218;51.480;7.006;2023-02-26T07:22:55;101215.66;;;2.16;71.09
14269;BME280;7218;51.480;7.006;2023-02-26T07:25:22;101220.28;;;2.28;69.30
14269;BME280;7218;51.480;7.006;2023-02-26T07:27:49;101218.03;;;2.38;69.73
14269;BME280;7218;51.480;7.006;2023-02-26T07:30:17;101224.81;;;2.36;69.24
14269;BME280;7218;51.480;7.006;2023-02-26T07:32:44;101236.06;;;2.40;68.91
14269;BME280;7218;51.480;7.006;2023-02-26T07:35:10;101229.28;;;2.42;69.48
14269;BME280;7218;51.480;7.006;2023-02-26T07:37:37;101232.06;;;2.49;69.56
14269;BME280;7218;51.480;7.006;2023-02-26T07:40:04;101242.53;;;2.55;68.51
14269;BME280;7218;51.480;7.006;2023-02-26T07:42:31;101248.22;;;2.44;69.60
14269;BME280;7218;51.480;7.006;2023-02-26T07:44:57;101251.81;;;2.49;69.32
14269;BME280;7218;51.480;7.006;2023-02-26T07:47:25;101255.16;;;2.46;69.31
14269;BME280;7218;51.480;7.006;2023-02-26T07:49:53;101263.47;;;2.38;69.49
14269;BME280;7218;51.480;7.006;2023-02-26T07:52:20;101269.09;;;2.54;69.20
14269;BME280;7218;51.480;7.006;2023-02-26T07:54:46;101273.53;;;2.58;68.87
14269;BME280;7218;51.480;7.006;2023-02-26T07:57:13;101272.28;;;2.76;68.96
14269;BME280;7218;51.480;7.006;2023-02-26T07:59:39;101280.50;;;2.94;67.43
14269;BME280;7218;51.480;7.006;2023-02-26T08:02:06;101281.50;;;2.99;66.94
14269;BME280;7218;51.480;7.006;2023-02-26T08:04:34;101279.91;;;3.02;67.00
14269;BME280;7218;51.480;7.006;2023-02-26T08:07:00;101279.84;;;3.01;66.75
14269;BME280;7218;51.480;7.006;2023-02-26T08:09:27;101282.19;;;2.92;65.69
14269;BME280;7218;51.480;7.006;2023-02-26T08:11:54;101276.69;;;3.11;65.44
14269;BME280;7218;51.480;7.006;2023-02-26T08:14:21;101275.78;;;3.09;65.97
14269;BME280;7218;51.480;7.006;2023-02-26T08:16:48;101281.50;;;2.99;65.76
14269;BME280;7218;51.480;7.006;2023-02-26T08:19:15;101282.91;;;3.19;64.46
14269;BME280;7218;51.480;7.006;2023-02-26T08:21:43;101280.25;;;3.49;63.80
14269;BME280;7218;51.480;7.006;2023-02-26T08:24:10;101287.22;;;3.52;63.35
14269;BME280;7218;51.480;7.006;2023-02-26T08:26:37;101286.00;;;3.37;62.17
14269;BME280;7218;51.480;7.006;2023-02-26T08:29:05;101283.03;;;3.57;61.79
14269;BME280;7218;51.480;7.006;2023-02-26T08:31:32;101284.41;;;3.77;61.61
14269;BME280;7218;51.480;7.006;2023-02-26T08:34:00;101291.81;;;3.65;59.95
14269;BME280;7218;51.480;7.006;2023-02-26T08:36:26;101290.75;;;3.91;59.70
14269;BME280;7218;51.480;7.006;2023-02-26T08:38:54;101301.38;;;4.03;57.63
14269;BME280;7218;51.480;7.006;2023-02-26T08:41:20;101308.00;;;4.29;56.99
14269;BME280;7218;51.480;7.006;2023-02-26T08:43:47;101307.63;;;4.52;55.50
14269;BME280;7218;51.480;7.006;2023-02-26T08:46:13;101311.09;;;4.54;55.22
14269;BME280;7218;51.480;7.006;2023-02-26T08:48:40;101307.97;;;4.67;54.09
14269;BME280;7218;51.480;7.006;2023-02-26T08:51:06;101318.53;;;4.79;53.57
14269;BME280;7218;51.480;7.006;2023-02-26T08:53:33;101314.50;;;4.92;53.10
14269;BME280;7218;51.480;7.006;2023-02-26T08:56:01;101318.88;;;4.96;52.91
14269;BME280;7218;51.480;7.006;2023-02-26T08:58:27;101330.69;;;5.28;52.76
14269;BME280;7218;51.480;7.006;2023-02-26T09:00:54;101321.94;;;5.67;50.59
14269;BME280;7218;51.480;7.006;2023-02-26T09:03:21;101322.69;;;5.61;50.17
14269;BME280;7218;51.480;7.006;2023-02-26T09:05:49;101326.97;;;6.09;49.64
14269;BME280;7218;51.480;7.006;2023-02-26T09:08:18;101332.66;;;6.43;48.64
14269;BME280;7218;51.480;7.006;2023-02-26T09:10:46;101335.19;;;6.39;47.93
14269;BME280;7218;51.480;7.006;2023-02-26T09:13:18;101333.59;;;6.47;47.66
14269;BME280;7218;51.480;7.006;2023-02-26T09:15:47;101335.72;;;6.78;48.17
14269;BME280;7218;51.480;7.006;2023-02-26T09:18:14;101336.84;;;6.96;45.92
14269;BME280;7218;51.480;7.006;2023-02-26T09:20:41;101340.34;;;7.01;45.43
14269;BME280;7218;51.480;7.006;2023-02-26T09:23:08;101344.00;;;7.18;46.57
14269;BME280;7218;51.480;7.006;2023-02-26T09:25:35;101345.47;;;6.98;43.98
14269;BME280;7218;51.480;7.006;2023-02-26T09:28:01;101351.72;;;7.13;45.07
14269;BME280;7218;51.480;7.006;2023-02-26T09:30:30;101352.13;;;7.47;45.03
14269;BME280;7218;51.480;7.006;2023-02-26T09:32:57;101358.53;;;7.85;43.94
14269;BME280;7218;51.480;7.006;2023-02-26T09:35:24;101360.06;;;7.62;42.51
14269;BME280;7218;51.480;7.006;2023-02-26T09:37:50;101359.63;;;8.10;44.15
14269;BME280;7218;51.480;7.006;2023-02-26T09:40:22;101356.19;;;8.14;43.75
14269;BME280;7218;51.480;7.006;2023-02-26T09:43:02;101360.53;;;8.15;41.77
14269;BME280;7218;51.480;7.006;2023-02-26T09:45:36;101370.94;;;8.18;42.32
14269;BME280;7218;51.480;7.006;2023-02-26T09:48:05;101375.41;;;8.31;41.12
14269;BME280;7218;51.480;7.006;2023-02-26T09:50:38;101373.84;;;8.57;40.45
14269;BME280;7218;51.480;7.006;2023-02-26T09:53:11;101375.72;;;8.80;41.47
14269;BME280;7218;51.480;7.006;2023-02-26T09:55:41;101387.19;;;9.23;40.32
14269;BME280;7218;51.480;7.006;2023-02-26T09:58:13;101395.06;;;9.36;40.24
14269;BME280;7218;51.480;7.006;2023-02-26T10:00:46;101394.13;;;9.21;39.12
14269;BME280;7218;51.480;7.006;2023-02-26T10:03:20;101386.47;;;9.80;37.15
14269;BME280;7218;51.480;7.006;2023-02-26T10:06:11;101391.69;;;10.07;35.87
14269;BME280;7218;51.480;7.006;2023-02-26T10:08:46;101391.69;;;9.83;35.96
14269;BME280;7218;51.480;7.006;2023-02-26T10:11:23;101395.22;;;10.40;36.52
14269;BME280;7218;51.480;7.006;2023-02-26T10:13:55;101394.13;;;11.26;35.48
14269;BME280;7218;51.480;7.006;2023-02-26T10:16:29;101396.34;;;11.98;33.54
14269;BME280;7218;51.480;7.006;2023-02-26T10:19:00;101398.28;;;11.63;33.68
14269;BME280;7218;51.480;7.006;2023-02-26T10:21:32;101409.91;;;10.92;35.25
14269;BME280;7218;51.480;7.006;2023-02-26T10:24:05;101404.66;;;12.46;35.12
14269;BME280;7218;51.480;7.006;2023-02-26T10:26:36;101408.88;;;13.40;32.78
14269;BME280;7218;51.480;7.006;2023-02-26T10:29:11;101407.44;;;12.28;32.63
14269;BME280;7218;51.480;7.006;2023-02-26T10:31:51;101403.09;;;12.28;33.41
14269;BME280;7218;51.480;7.006;2023-02-26T10:34:25;101403.53;;;12.71;32.07
14269;BME280;7218;51.480;7.006;2023-02-26T10:36:57;101406.72;;;12.09;32.76
14269;BME280;7218;51.480;7.006;2023-02-26T10:39:31;101398.34;;;12.67;32.00
14269;BME280;7218;51.480;7.006;2023-02-26T10:42:01;101398.00;;;14.26;30.97
14269;BME280;7218;51.480;7.006;2023-02-26T10:44:33;101398.31;;;15.05;30.57
14269;BME280;7218;51.480;7.006;2023-02-26T10:47:08;101398.97;;;15.97;28.72
14269;BME280;7218;51.480;7.006;2023-02-26T10:49:46;101400.25;;;16.85;27.93
14269;BME280;7218;51.480;7.006;2023-02-26T10:52:16;101394.44;;;16.39;27.28
14269;BME280;7218;51.480;7.006;2023-02-26T10:54:59;101405.50;;;16.85;26.66
14269;BME280;7218;51.480;7.006;2023-02-26T10:57:30;101404.75;;;16.82;26.51
14269;BME280;7218;51.480;7.006;2023-02-26T10:59:58;101404.41;;;16.61;25.41
14269;BME280;7218;51.480;7.006;2023-02-26T11:02:33;101414.00;;;17.27;23.74
14269;BME280;7218;51.480;7.006;2023-02-26T11:05:02;101420.59;;;17.42;25.19
14269;BME280;7218;51.480;7.006;2023-02-26T11:07:30;101414.03;;;17.55;26.75
14269;BME280;7218;51.480;7.006;2023-02-26T11:09:57;101421.34;;;17.76;26.10
14269;BME280;7218;51.480;7.006;2023-02-26T11:12:24;101416.56;;;18.43;25.18
14269;BME280;7218;51.480;7.006;2023-02-26T11:14:52;101417.03;;;18.80;24.38
14269;BME280;7218;51.480;7.006;2023-02-26T11:17:21;101421.59;;;19.93;23.39
14269;BME280;7218;51.480;7.006;2023-02-26T11:19:56;101414.91;;;20.06;22.86
14269;BME280;7218;51.480;7.006;2023-02-26T11:22:24;101418.81;;;20.18;22.78
14269;BME280;7218;51.480;7.006;2023-02-26T11:24:51;101420.50;;;20.62;22.04
14269;BME280;7218;51.480;7.006;2023-02-26T11:27:20;101426.59;;;19.79;23.69
14269;BME280;7218;51.480;7.006;2023-02-26T11:29:48;101428.13;;;20.28;23.31
14269;BME280;7218;51.480;7.006;2023-02-26T11:32:21;101433.63;;;20.24;22.46
14269;BME280;7218;51.480;7.006;2023-02-26T11:34:50;101431.25;;;20.59;22.05
14269;BME280;7218;51.480;7.006;2023-02-26T11:37:19;101422.19;;;20.65;21.68
14269;BME280;7218;51.480;7.006;2023-02-26T11:39:49;101430.53;;;20.56;20.14
14269;BME280;7218;51.480;7.006;2023-02-26T11:42:17;101429.66;;;19.68;20.21
14269;BME280;7218;51.480;7.006;2023-02-26T11:44:44;101426.03;;;20.14;20.29
14269;BME280;7218;51.480;7.006;2023-02-26T11:47:15;101431.94;;;19.77;20.78
14269;BME280;7218;51.480;7.006;2023-02-26T11:49:44;101436.31;;;19.78;21.12
14269;BME280;7218;51.480;7.006;2023-02-26T11:52:20;101421.88;;;20.31;20.07
14269;BME280;7218;51.480;7.006;2023-02-26T11:54:49;101422.66;;;20.11;20.22
14269;BME280;7218;51.480;7.006;2023-02-26T11:57:18;101427.91;;;19.46;19.75
14269;BME280;7218;51.480;7.006;2023-02-26T11:59:48;101422.78;;;19.86;20.61
14269;BME280;7218;51.480;7.006;2023-02-26T12:02:17;101418.47;;;20.27;21.32
14269;BME280;7218;51.480;7.006;2023-02-26T12:04:46;101428.47;;;20.83;20.90
14269;BME280;7218;51.480;7.006;2023-02-26T12:07:15;101416.44;;;20.76;19.62
14269;BME280;7218;51.480;7.006;2023-02-26T12:09:44;101424.19;;;20.80;18.92
14269;BME280;7218;51.480;7.006;2023-02-26T12:12:21;101422.94;;;21.28;19.03
14269;BME280;7218;51.480;7.006;2023-02-26T12:15:00;101414.81;;;22.24;19.51
14269;BME280;7218;51.480;7.006;2023-02-26T12:17:41;101413.16;;;20.49;20.29
14269;BME280;7218;51.480;7.006;2023-02-26T12:20:16;101433.06;;;21.20;21.13
14269;BME280;7218;51.480;7.006;2023-02-26T12:22:58;101425.38;;;21.14;19.81
14269;BME280;7218;51.480;7.006;2023-02-26T12:25:41;101429.00;;;21.69;20.90
14269;BME280;7218;51.480;7.006;2023-02-26T12:28:42;101418.81;;;22.33;20.13
14269;BME280;7218;51.480;7.006;2023-02-26T12:31:26;101436.06;;;22.78;19.35
14269;BME280;7218;51.480;7.006;2023-02-26T12:34:15;101422.13;;;23.87;18.58
14269;BME280;7218;51.480;7.006;2023-02-26T12:37:01;101425.72;;;23.22;19.34
14269;BME280;7218;51.480;7.006;2023-02-26T12:39:37;101423.47;;;23.31;18.04
14269;BME280;7218;51.480;7.006;2023-02-26T12:42:17;101420.59;;;23.18;18.48
14269;BME280;7218;51.480;7.006;2023-02-26T12:47:53;101425.00;;;23.02;18.61
14269;BME280;7218;51.480;7.006;2023-02-26T12:50:33;101430.25;;;23.04;18.01
14269;BME280;7218;51.480;7.006;2023-02-26T12:53:14;101425.63;;;22.21;18.54
14269;BME280;7218;51.480;7.006;2023-02-26T12:55:52;101425.50;;;22.76;19.17
14269;BME280;7218;51.480;7.006;2023-02-26T12:58:49;101430.66;;;22.79;18.34
14269;BME280;7218;51.480;7.006;2023-02-26T13:01:32;101433.38;;;23.45;18.42
14269;BME280;7218;51.480;7.006;2023-02-26T13:04:21;101431.72;;;22.41;18.77
14269;BME280;7218;51.480;7.006;2023-02-26T13:07:00;101431.91;;;23.22;17.97
14269;BME280;7218;51.480;7.006;2023-02-26T13:09:40;101420.16;;;23.59;19.11
14269;BME280;7218;51.480;7.006;2023-02-26T13:12:20;101426.44;;;24.05;18.00
14269;BME280;7218;51.480;7.006;2023-02-26T13:15:00;101429.28;;;23.86;17.78
14269;BME280;7218;51.480;7.006;2023-02-26T13:17:31;101434.00;;;23.97;17.97
14269;BME280;7218;51.480;7.006;2023-02-26T13:20:04;101435.97;;;23.62;18.15
14269;BME280;7218;51.480;7.006;2023-02-26T13:22:38;101435.13;;;23.29;18.82
14269;BME280;7218;51.480;7.006;2023-02-26T13:25:18;101441.59;;;22.56;17.44
14269;BME280;7218;51.480;7.006;2023-02-26T13:27:48;101450.00;;;23.66;17.81